createdAt,value
2018-07-30T00:02:19.369Z,16.70
2018-07-30T00:04:47.150Z,17.40
2018-07-30T00:07:14.927Z,17.23
2018-07-30T00:09:42.714Z,17.20
2018-07-30T00:12:10.504Z,17.30
2018-07-30T00:14:38.369Z,17.40
2018-07-30T00:17:06.229Z,16.90
2018-07-30T00:19:34.066Z,17.53
2018-07-30T00:22:01.866Z,17.67
2018-07-30T00:24:29.635Z,17.90
2018-07-30T00:26:57.446Z,18.37
2018-07-30T00:29:25.222Z,17.40
2018-07-30T00:31:52.990Z,18.20
2018-07-30T00:34:20.761Z,18.83
2018-07-30T00:36:48.564Z,18.57
2018-07-30T00:39:16.360Z,18.40
2018-07-30T00:41:44.126Z,18.87
2018-07-30T00:44:11.893Z,17.50
2018-07-30T00:46:39.645Z,18.07
2018-07-30T00:49:07.825Z,17.87
2018-07-30T00:51:35.719Z,17.20
2018-07-30T00:54:03.457Z,17.47
2018-07-30T00:56:31.272Z,18.13
2018-07-30T00:58:59.031Z,16.43
2018-07-30T01:01:26.789Z,17.80
2018-07-30T01:03:54.573Z,17.27
2018-07-30T01:06:22.362Z,17.20
2018-07-30T01:08:50.196Z,17.20
2018-07-30T01:11:17.982Z,17.63
2018-07-30T01:13:45.813Z,17.17
2018-07-30T01:16:13.603Z,17.30
2018-07-30T01:18:41.377Z,16.40
2018-07-30T01:21:09.306Z,16.67
2018-07-30T01:23:37.117Z,17.77
2018-07-30T01:26:10.522Z,19.30
2018-07-30T01:28:38.288Z,17.97
2018-07-30T01:31:06.162Z,18.67
2018-07-30T01:33:33.934Z,19.10
2018-07-30T01:36:01.743Z,19.73
2018-07-30T01:38:29.536Z,18.63
2018-07-30T01:40:57.310Z,20.13
2018-07-30T01:43:25.077Z,19.93
2018-07-30T01:45:52.841Z,22.77
2018-07-30T01:48:20.593Z,22.70
2018-07-30T01:50:48.392Z,25.57
2018-07-30T01:53:16.204Z,26.23
2018-07-30T01:55:44.002Z,22.80
2018-07-30T01:58:11.782Z,28.10
2018-07-30T02:00:39.646Z,25.47
2018-07-30T02:03:07.485Z,28.03
2018-07-30T02:05:35.236Z,27.13
2018-07-30T02:08:03.033Z,27.53
2018-07-30T02:10:30.830Z,25.67
2018-07-30T02:12:58.610Z,25.20
2018-07-30T02:15:26.422Z,23.73
2018-07-30T02:17:54.194Z,21.53
2018-07-30T02:20:22.039Z,22.93
2018-07-30T02:22:49.826Z,23.90
2018-07-30T02:25:17.630Z,20.43
2018-07-30T02:27:45.470Z,20.77
2018-07-30T02:30:13.234Z,21.07
2018-07-30T02:32:41.040Z,21.23
2018-07-30T02:35:09.265Z,20.80
2018-07-30T02:37:37.187Z,23.67
2018-07-30T02:40:05.737Z,23.43
2018-07-30T02:42:33.494Z,25.27
2018-07-30T02:45:01.550Z,24.73
2018-07-30T02:47:29.381Z,24.10
2018-07-30T02:49:57.173Z,20.97
2018-07-30T02:52:25.046Z,22.77
2018-07-30T02:54:52.874Z,20.63
2018-07-30T02:57:20.653Z,20.97
2018-07-30T02:59:48.461Z,18.37
2018-07-30T03:02:16.402Z,18.33
2018-07-30T03:04:44.201Z,17.67
2018-07-30T03:07:12.001Z,16.80
2018-07-30T03:09:39.765Z,17.17
2018-07-30T03:12:07.618Z,17.43
2018-07-30T03:14:35.396Z,16.63
2018-07-30T03:17:03.197Z,14.80
2018-07-30T03:19:31.033Z,13.47
2018-07-30T03:21:58.798Z,14.30
2018-07-30T03:24:26.616Z,14.90
2018-07-30T03:26:54.390Z,15.10
2018-07-30T03:29:22.197Z,13.63
2018-07-30T03:31:50.002Z,15.50
2018-07-30T03:34:17.800Z,18.20
2018-07-30T03:36:45.605Z,18.47
2018-07-30T03:39:13.383Z,21.70
2018-07-30T03:41:41.153Z,21.83
2018-07-30T03:44:08.929Z,20.53
2018-07-30T03:46:36.746Z,22.50
2018-07-30T03:49:04.894Z,19.90
2018-07-30T03:51:32.726Z,21.57
2018-07-30T03:54:00.509Z,20.63
2018-07-30T03:56:28.283Z,22.50
2018-07-30T03:58:56.059Z,22.77
2018-07-30T04:01:23.862Z,21.37
2018-07-30T04:03:51.665Z,22.13
2018-07-30T04:06:19.465Z,21.53
2018-07-30T04:08:47.244Z,22.80
2018-07-30T04:11:15.026Z,22.70
2018-07-30T04:13:42.823Z,23.37
2018-07-30T04:16:10.732Z,24.90
2018-07-30T04:18:38.546Z,28.57
2018-07-30T04:21:06.343Z,28.33
2018-07-30T04:23:34.109Z,24.83
2018-07-30T04:26:01.914Z,28.93
2018-07-30T04:28:29.709Z,25.40
2018-07-30T04:30:57.481Z,25.83
2018-07-30T04:33:25.293Z,26.07
2018-07-30T04:35:53.070Z,26.13
2018-07-30T04:38:20.864Z,26.33
2018-07-30T04:40:48.670Z,26.63
2018-07-30T04:43:16.438Z,26.77
2018-07-30T04:45:44.203Z,25.57
2018-07-30T04:48:11.972Z,23.83
2018-07-30T04:50:39.774Z,22.13
2018-07-30T04:53:07.554Z,22.50
2018-07-30T04:55:35.329Z,21.33
2018-07-30T04:58:03.117Z,19.73
2018-07-30T05:00:30.969Z,17.57
2018-07-30T05:03:00.302Z,17.33
2018-07-30T05:05:28.051Z,15.63
2018-07-30T05:07:55.819Z,15.70
2018-07-30T05:10:23.638Z,15.60
2018-07-30T05:12:51.406Z,14.63
2018-07-30T05:15:19.174Z,14.53
2018-07-30T05:17:46.945Z,15.27
2018-07-30T05:20:14.728Z,14.73
2018-07-30T05:22:42.544Z,14.20
2018-07-30T05:25:10.355Z,13.97
2018-07-30T05:27:38.146Z,12.67
2018-07-30T05:30:06.121Z,13.67
2018-07-30T05:32:33.928Z,12.80
2018-07-30T05:35:01.760Z,12.33
2018-07-30T05:37:29.573Z,12.43
2018-07-30T05:39:57.349Z,13.13
2018-07-30T05:42:25.141Z,12.37
2018-07-30T05:44:52.920Z,12.43
2018-07-30T05:47:20.732Z,12.57
2018-07-30T05:49:48.554Z,13.53
2018-07-30T05:52:16.334Z,13.43
2018-07-30T05:54:44.138Z,14.10
2018-07-30T05:57:11.922Z,14.87
2018-07-30T05:59:39.715Z,14.77
2018-07-30T06:02:07.513Z,16.00
2018-07-30T06:04:35.368Z,16.37
2018-07-30T06:07:03.221Z,17.27
2018-07-30T06:09:31.029Z,17.10
2018-07-30T06:11:58.836Z,17.80
2018-07-30T06:14:26.585Z,17.77
2018-07-30T06:16:54.388Z,16.97
2018-07-30T06:19:22.197Z,20.20
2018-07-30T06:21:49.977Z,19.27
2018-07-30T06:24:17.729Z,18.83
2018-07-30T06:26:45.490Z,19.50
2018-07-30T06:29:13.312Z,19.70
2018-07-30T06:31:41.112Z,18.57
2018-07-30T06:34:08.886Z,18.60
2018-07-30T06:36:36.693Z,19.73
2018-07-30T06:39:07.040Z,20.47
2018-07-30T06:41:34.930Z,22.60
2018-07-30T06:44:02.809Z,23.13
2018-07-30T06:46:30.650Z,23.00
2018-07-30T06:48:58.425Z,22.60
2018-07-30T06:51:26.264Z,23.27
2018-07-30T06:53:54.104Z,22.60
2018-07-30T06:56:21.857Z,23.00
2018-07-30T06:58:49.638Z,22.57
2018-07-30T07:01:17.443Z,21.80
2018-07-30T07:03:45.223Z,22.00
2018-07-30T07:06:12.995Z,22.77
2018-07-30T07:08:40.763Z,23.17
2018-07-30T07:11:08.600Z,24.90
2018-07-30T07:13:36.395Z,24.27
2018-07-30T07:16:04.332Z,24.90
2018-07-30T07:18:32.153Z,25.10
2018-07-30T07:20:59.974Z,23.90
2018-07-30T07:23:27.721Z,23.63
2018-07-30T07:25:55.579Z,25.03
2018-07-30T07:28:23.365Z,23.77
2018-07-30T07:30:51.220Z,23.20
2018-07-30T07:33:19.021Z,24.33
2018-07-30T07:35:46.787Z,23.80
2018-07-30T07:38:14.613Z,22.20
2018-07-30T07:40:42.407Z,23.03
2018-07-30T07:43:10.240Z,23.50
2018-07-30T07:45:38.030Z,23.37
2018-07-30T07:48:05.912Z,23.93
2018-07-30T07:50:33.911Z,22.67
2018-07-30T07:53:01.635Z,23.27
2018-07-30T07:55:29.425Z,24.53
2018-07-30T07:57:57.268Z,24.67
2018-07-30T08:00:25.033Z,22.60
2018-07-30T08:02:52.853Z,23.17
2018-07-30T08:05:20.678Z,23.97
2018-07-30T08:07:48.503Z,22.27
2018-07-30T08:10:16.358Z,22.57
2018-07-30T08:12:44.174Z,21.63
2018-07-30T08:15:11.981Z,18.97
2018-07-30T08:17:39.810Z,20.33
2018-07-30T08:20:08.547Z,20.60
2018-07-30T08:22:36.713Z,21.07
2018-07-30T08:25:07.067Z,21.50
2018-07-30T08:27:34.893Z,22.20
2018-07-30T08:30:02.732Z,20.70
2018-07-30T08:32:30.599Z,23.37
2018-07-30T08:34:58.419Z,21.70
2018-07-30T08:37:26.340Z,21.97
2018-07-30T08:39:54.151Z,20.33
2018-07-30T08:42:21.994Z,19.80
2018-07-30T08:44:49.827Z,21.50
2018-07-30T08:47:17.634Z,20.17
2018-07-30T08:49:45.461Z,19.93
2018-07-30T08:52:13.227Z,19.30
2018-07-30T08:54:41.029Z,20.60
2018-07-30T08:57:08.839Z,18.07
2018-07-30T08:59:36.649Z,19.80
2018-07-30T09:02:04.486Z,19.07
2018-07-30T09:04:32.301Z,18.03
2018-07-30T09:07:00.119Z,17.00
2018-07-30T09:09:27.974Z,18.43
2018-07-30T09:11:55.829Z,18.30
2018-07-30T09:14:23.622Z,17.40
2018-07-30T09:16:51.664Z,17.50
2018-07-30T09:19:19.538Z,17.00
2018-07-30T09:21:47.373Z,17.20
2018-07-30T09:24:15.134Z,18.57
2018-07-30T09:26:42.954Z,16.93
2018-07-30T09:29:10.725Z,15.90
2018-07-30T09:31:38.510Z,14.27
2018-07-30T09:34:06.465Z,16.07
2018-07-30T09:36:34.302Z,15.27
2018-07-30T09:39:02.095Z,14.40
2018-07-30T09:41:29.868Z,14.57
2018-07-30T09:43:57.642Z,15.53
2018-07-30T09:46:25.455Z,15.00
2018-07-30T09:48:53.272Z,13.97
2018-07-30T09:51:21.066Z,14.93
2018-07-30T09:53:48.887Z,14.37
2018-07-30T09:56:16.715Z,12.03
2018-07-30T09:58:44.478Z,9.37
2018-07-30T10:01:17.672Z,9.33
2018-07-30T10:03:45.472Z,11.37
2018-07-30T10:06:13.308Z,9.73
2018-07-30T10:08:41.065Z,11.13
2018-07-30T10:11:08.825Z,10.83
2018-07-30T10:13:36.622Z,10.47
2018-07-30T10:16:04.407Z,9.97
2018-07-30T10:18:32.177Z,9.23
2018-07-30T10:21:00.026Z,6.70
2018-07-30T10:23:27.798Z,6.73
2018-07-30T10:25:55.568Z,7.27
2018-07-30T10:28:23.379Z,6.70
2018-07-30T10:30:51.195Z,6.70
2018-07-30T10:33:19.015Z,7.67
2018-07-30T10:35:46.840Z,7.20
2018-07-30T10:38:14.741Z,6.67
2018-07-30T10:40:42.466Z,6.30
2018-07-30T10:43:10.275Z,6.43
2018-07-30T10:45:38.089Z,8.20
2018-07-30T10:48:05.958Z,9.10
2018-07-30T10:50:33.776Z,8.77
2018-07-30T10:53:01.544Z,8.13
2018-07-30T10:55:29.361Z,12.37
2018-07-30T10:57:57.118Z,13.10
2018-07-30T11:00:24.911Z,9.53
2018-07-30T11:02:52.711Z,11.23
2018-07-30T11:05:20.597Z,10.77
2018-07-30T11:07:48.431Z,12.77
2018-07-30T11:10:16.233Z,10.20
2018-07-30T11:12:44.024Z,11.67
2018-07-30T11:15:11.834Z,10.00
2018-07-30T11:17:40.551Z,11.73
2018-07-30T11:20:08.400Z,11.60
2018-07-30T11:22:36.174Z,11.20
2018-07-30T11:25:03.998Z,11.07
2018-07-30T11:27:31.765Z,11.60
2018-07-30T11:29:59.569Z,10.37
2018-07-30T11:32:27.369Z,11.77
2018-07-30T11:34:55.137Z,12.60
2018-07-30T11:37:22.897Z,12.30
2018-07-30T11:39:50.683Z,9.07
2018-07-30T11:42:18.547Z,7.67
2018-07-30T11:44:46.343Z,8.70
2018-07-30T11:47:14.125Z,6.90
2018-07-30T11:49:41.948Z,8.83
2018-07-30T11:52:09.733Z,8.17
2018-07-30T11:54:37.486Z,7.80
2018-07-30T11:57:05.334Z,7.57
2018-07-30T11:59:33.158Z,8.17
2018-07-30T12:02:00.942Z,8.13
2018-07-30T12:04:28.834Z,8.20
2018-07-30T12:06:56.616Z,8.10
2018-07-30T12:09:24.431Z,9.17
2018-07-30T12:11:52.286Z,7.80
2018-07-30T12:14:20.167Z,8.13
2018-07-30T12:16:47.982Z,7.77
2018-07-30T12:19:15.771Z,8.00
2018-07-30T12:21:43.613Z,8.33
2018-07-30T12:24:11.394Z,7.67
2018-07-30T12:26:39.218Z,7.53
2018-07-30T12:29:07.031Z,8.13
2018-07-30T12:31:34.814Z,8.27
2018-07-30T12:34:02.914Z,7.83
2018-07-30T12:36:30.779Z,7.90
2018-07-30T12:38:58.653Z,7.83
2018-07-30T12:41:26.458Z,8.10
2018-07-30T12:43:54.322Z,7.40
2018-07-30T12:46:22.113Z,8.63
2018-07-30T12:48:49.895Z,7.90
2018-07-30T12:51:17.736Z,7.33
2018-07-30T12:53:45.582Z,8.20
2018-07-30T12:56:13.374Z,7.50
2018-07-30T12:58:42.603Z,8.20
2018-07-30T13:01:10.535Z,10.30
2018-07-30T13:03:38.354Z,8.30
2018-07-30T13:06:06.303Z,9.00
2018-07-30T13:08:34.095Z,8.90
2018-07-30T13:11:01.906Z,8.53
2018-07-30T13:13:29.729Z,8.23
2018-07-30T13:15:57.627Z,8.50
2018-07-30T13:18:25.434Z,8.87
2018-07-30T13:20:53.239Z,9.00
2018-07-30T13:23:21.049Z,8.63
2018-07-30T13:25:48.880Z,8.80
2018-07-30T13:28:16.703Z,8.10
2018-07-30T13:30:44.501Z,9.10
2018-07-30T13:33:12.285Z,8.60
2018-07-30T13:35:40.071Z,8.00
2018-07-30T13:38:08.058Z,8.50
2018-07-30T13:40:35.976Z,7.60
2018-07-30T13:43:03.791Z,7.73
2018-07-30T13:45:31.593Z,8.50
2018-07-30T13:47:59.370Z,8.27
2018-07-30T13:50:27.230Z,8.13
2018-07-30T13:52:55.001Z,8.13
2018-07-30T13:55:22.775Z,8.20
2018-07-30T13:57:50.559Z,7.30
2018-07-30T14:00:18.371Z,8.30
2018-07-30T14:02:46.255Z,7.70
2018-07-30T14:05:14.092Z,8.23
2018-07-30T14:07:41.911Z,8.57
2018-07-30T14:10:10.187Z,8.83
2018-07-30T14:12:38.237Z,8.20
2018-07-30T14:15:06.669Z,8.77
2018-07-30T14:17:34.523Z,9.30
2018-07-30T14:20:02.293Z,9.07
2018-07-30T14:22:30.150Z,8.90
2018-07-30T14:24:57.968Z,8.90
2018-07-30T14:27:25.764Z,8.00
2018-07-30T14:29:53.605Z,8.60
2018-07-30T14:32:21.396Z,9.00
2018-07-30T14:34:49.274Z,8.70
2018-07-30T14:37:17.109Z,8.40
2018-07-30T14:39:44.926Z,8.77
2018-07-30T14:42:12.767Z,8.73
2018-07-30T14:44:40.672Z,8.63
2018-07-30T14:47:08.605Z,8.73
2018-07-30T14:49:36.466Z,8.53
2018-07-30T14:52:04.387Z,8.97
2018-07-30T14:54:32.334Z,8.23
2018-07-30T14:57:00.174Z,8.37
2018-07-30T14:59:28.191Z,8.33
2018-07-30T15:01:56.005Z,8.90
2018-07-30T15:04:23.875Z,8.67
2018-07-30T15:06:51.814Z,8.73
2018-07-30T15:09:19.738Z,7.90
2018-07-30T15:11:47.661Z,7.03
2018-07-30T15:14:15.519Z,7.97
2018-07-30T15:16:43.378Z,7.37
2018-07-30T15:19:11.329Z,6.57
2018-07-30T15:21:39.173Z,8.77
2018-07-30T15:24:07.060Z,6.90
2018-07-30T15:26:34.901Z,6.87
2018-07-30T15:29:02.786Z,6.27
2018-07-30T15:31:30.881Z,6.23
2018-07-30T15:33:58.897Z,5.67
2018-07-30T15:36:26.745Z,5.87
2018-07-30T15:38:54.616Z,5.33
2018-07-30T15:41:22.466Z,6.00
2018-07-30T15:43:50.330Z,6.50
2018-07-30T15:46:18.145Z,6.90
2018-07-30T15:48:46.106Z,6.53
2018-07-30T15:51:14.035Z,6.43
2018-07-30T15:53:41.942Z,6.27
2018-07-30T15:56:09.848Z,7.43
2018-07-30T15:58:38.102Z,7.13
2018-07-30T16:01:05.981Z,7.83
2018-07-30T16:03:33.829Z,8.17
2018-07-30T16:06:02.048Z,7.37
2018-07-30T16:08:30.336Z,7.67
2018-07-30T16:10:58.211Z,7.83
2018-07-30T16:13:26.070Z,6.73
2018-07-30T16:15:53.960Z,7.93
2018-07-30T16:18:21.838Z,6.77
2018-07-30T16:20:50.598Z,8.13
2018-07-30T16:23:18.615Z,7.07
2018-07-30T16:25:46.939Z,7.80
2018-07-30T16:28:14.798Z,7.90
2018-07-30T16:30:42.735Z,8.10
2018-07-30T16:33:10.626Z,8.10
2018-07-30T16:35:38.498Z,8.10
2018-07-30T16:38:06.337Z,7.37
2018-07-30T16:40:34.201Z,7.70
2018-07-30T16:43:02.169Z,7.77
2018-07-30T16:45:30.426Z,7.30
2018-07-30T16:47:58.297Z,7.20
2018-07-30T16:50:26.201Z,7.53
2018-07-30T16:52:54.110Z,7.53
2018-07-30T16:55:21.993Z,7.07
2018-07-30T16:57:49.858Z,7.30
2018-07-30T17:00:17.829Z,6.87
2018-07-30T17:02:45.706Z,7.60
2018-07-30T17:05:16.530Z,7.50
2018-07-30T17:07:44.414Z,10.00
2018-07-30T17:10:12.327Z,8.47
2018-07-30T17:12:40.252Z,7.63
2018-07-30T17:15:08.101Z,8.03
2018-07-30T17:17:35.961Z,11.47
2018-07-30T17:20:05.667Z,9.47
2018-07-30T17:22:33.477Z,8.63
2018-07-30T17:25:01.375Z,8.57
2018-07-30T17:27:29.259Z,8.90
2018-07-30T17:29:57.161Z,8.40
2018-07-30T17:32:25.110Z,7.97
2018-07-30T17:34:52.968Z,9.20
2018-07-30T17:37:20.862Z,8.67
2018-07-30T17:39:48.717Z,9.33
2018-07-30T17:42:16.555Z,8.80
2018-07-30T17:44:44.420Z,10.43
2018-07-30T17:47:12.290Z,14.67
2018-07-30T17:49:40.163Z,9.40
2018-07-30T17:52:08.068Z,9.87
2018-07-30T17:54:35.966Z,9.70
2018-07-30T17:57:03.934Z,9.33
2018-07-30T17:59:31.822Z,9.60
2018-07-30T18:01:59.763Z,9.87
2018-07-30T18:04:27.681Z,9.83
2018-07-30T18:06:55.566Z,10.27
2018-07-30T18:09:23.453Z,10.23
2018-07-30T18:11:51.324Z,10.03
2018-07-30T18:14:19.236Z,11.00
2018-07-30T18:16:47.157Z,11.17
2018-07-30T18:19:15.006Z,11.23
2018-07-30T18:21:43.234Z,11.40
2018-07-30T18:24:11.113Z,10.40
2018-07-30T18:26:39.013Z,10.53
2018-07-30T18:29:07.249Z,10.70
2018-07-30T18:31:35.126Z,11.70
2018-07-30T18:34:03.054Z,10.87
2018-07-30T18:36:31.016Z,10.00
2018-07-30T18:38:58.916Z,9.03
2018-07-30T18:41:26.888Z,9.67
2018-07-30T18:43:54.737Z,9.93
2018-07-30T18:46:22.722Z,9.63
2018-07-30T18:48:50.565Z,10.23
2018-07-30T18:51:18.897Z,9.93
2018-07-30T18:53:46.750Z,9.70
2018-07-30T18:56:14.725Z,10.30
2018-07-30T18:58:42.665Z,9.93
2018-07-30T19:01:10.599Z,10.30
2018-07-30T19:03:38.541Z,9.53
2018-07-30T19:06:07.486Z,10.30
2018-07-30T19:08:35.405Z,10.60
2018-07-30T19:11:03.349Z,12.50
2018-07-30T19:13:31.252Z,13.17
2018-07-30T19:15:59.180Z,13.40
2018-07-30T19:18:27.094Z,14.13
2018-07-30T19:20:55.005Z,15.30
2018-07-30T19:23:22.885Z,15.13
2018-07-30T19:25:50.762Z,13.63
2018-07-30T19:28:18.669Z,14.93
2018-07-30T19:30:46.536Z,13.73
2018-07-30T19:33:14.937Z,14.23
2018-07-30T19:35:42.877Z,14.07
2018-07-30T19:38:10.785Z,15.70
2018-07-30T19:40:38.712Z,40.67
2018-07-30T19:43:07.245Z,84.63
2018-07-30T19:45:35.142Z,28.03
2018-07-30T19:48:03.109Z,20.47
2018-07-30T19:50:31.073Z,16.83
2018-07-30T19:52:59.129Z,17.03
2018-07-30T19:55:27.013Z,18.53
2018-07-30T19:57:55.109Z,16.13
2018-07-30T20:00:22.887Z,15.90
2018-07-30T20:02:50.768Z,15.13
2018-07-30T20:05:18.648Z,14.07
2018-07-30T20:07:46.549Z,11.93
2018-07-30T20:10:14.458Z,13.40
2018-07-30T20:12:42.332Z,12.97
2018-07-30T20:15:10.290Z,13.00
2018-07-30T20:17:38.248Z,13.43
2018-07-30T20:20:10.412Z,12.60
2018-07-30T20:22:38.213Z,10.83
2018-07-30T20:25:06.416Z,10.10
2018-07-30T20:27:34.309Z,9.60
2018-07-30T20:30:02.278Z,9.87
2018-07-30T20:32:30.133Z,8.60
2018-07-30T20:34:58.081Z,8.90
2018-07-30T20:37:25.962Z,7.90
2018-07-30T20:39:54.165Z,6.93
2018-07-30T20:42:22.133Z,7.63
2018-07-30T20:44:50.005Z,8.23
2018-07-30T20:47:17.959Z,7.93
2018-07-30T20:49:45.821Z,7.20
2018-07-30T20:52:13.669Z,7.27
2018-07-30T20:54:41.529Z,6.43
2018-07-30T20:57:09.357Z,6.87
2018-07-30T20:59:37.251Z,6.53
2018-07-30T21:02:05.197Z,6.80
2018-07-30T21:04:33.133Z,7.07
2018-07-30T21:07:00.905Z,6.87
2018-07-30T21:09:28.825Z,6.83
2018-07-30T21:11:56.684Z,6.97
2018-07-30T21:14:24.565Z,7.33
2018-07-30T21:16:52.413Z,7.13
2018-07-30T21:19:20.280Z,8.33
2018-07-30T21:21:48.121Z,8.23
2018-07-30T21:24:16.011Z,8.27
2018-07-30T21:26:43.842Z,8.20
2018-07-30T21:29:11.665Z,7.90
2018-07-30T21:31:39.486Z,8.63
2018-07-30T21:34:07.335Z,8.77
2018-07-30T21:36:35.382Z,8.97
2018-07-30T21:39:03.791Z,9.67
2018-07-30T21:41:31.665Z,9.27
2018-07-30T21:43:59.490Z,9.00
2018-07-30T21:46:27.321Z,8.93
2018-07-30T21:48:55.178Z,9.23
2018-07-30T21:51:23.026Z,8.80
2018-07-30T21:53:50.894Z,8.90
2018-07-30T21:56:18.765Z,9.77
2018-07-30T21:58:46.680Z,8.47
2018-07-30T22:01:14.708Z,8.00
2018-07-30T22:03:42.665Z,9.03
2018-07-30T22:06:10.604Z,8.03
2018-07-30T22:08:38.570Z,9.27
2018-07-30T22:11:06.567Z,8.00
2018-07-30T22:13:34.492Z,8.80
2018-07-30T22:16:02.456Z,9.13
2018-07-30T22:18:30.383Z,9.80
2018-07-30T22:20:58.355Z,9.60
2018-07-30T22:23:26.277Z,10.33
2018-07-30T22:25:54.198Z,9.90
2018-07-30T22:28:22.163Z,10.90
2018-07-30T22:30:50.183Z,11.00
2018-07-30T22:33:18.157Z,11.40
2018-07-30T22:35:46.131Z,11.27
2018-07-30T22:38:14.053Z,11.30
2018-07-30T22:40:41.972Z,10.93
2018-07-30T22:43:10.363Z,11.23
2018-07-30T22:45:38.419Z,11.23
2018-07-30T22:48:06.325Z,11.03
2018-07-30T22:50:34.463Z,10.53
2018-07-30T22:53:02.403Z,10.60
2018-07-30T22:55:30.335Z,9.47
2018-07-30T22:57:58.313Z,9.00
2018-07-30T23:00:26.288Z,8.40
2018-07-30T23:02:54.310Z,9.07
2018-07-30T23:05:22.257Z,9.67
2018-07-30T23:07:50.219Z,8.57
2018-07-30T23:10:18.167Z,9.03
2018-07-30T23:12:46.116Z,8.57
2018-07-30T23:15:14.036Z,9.00
2018-07-30T23:17:41.905Z,9.07
2018-07-30T23:20:09.761Z,9.60
2018-07-30T23:22:37.606Z,8.70
2018-07-30T23:25:05.441Z,9.83
2018-07-30T23:27:33.338Z,9.90
2018-07-30T23:30:01.202Z,9.90
2018-07-30T23:32:29.108Z,9.07
2018-07-30T23:34:57.021Z,9.40
2018-07-30T23:37:25.073Z,9.53
2018-07-30T23:39:52.922Z,8.70
2018-07-30T23:42:20.840Z,9.90
2018-07-30T23:44:48.829Z,9.13
2018-07-30T23:47:16.795Z,9.47
2018-07-30T23:49:44.701Z,10.10
2018-07-30T23:52:12.679Z,9.00
2018-07-30T23:54:40.619Z,9.30
2018-07-30T23:57:08.539Z,9.63
2018-07-30T23:59:36.507Z,9.20
